Time;durP1;ratioP1;P1;durP2;ratioP2;P2;SDS_P1;SDS_P2;PMS_P1;PMS_P2;Temp;Humidity;BMP_temperature;BMP_pressure;BME280_temperature;BME280_humidity;BME280_pressure;Samples;Min_cycle;Max_cycle;Signal;HPM_P1;HPM_P2
2021/10/21 00:02:15;;;;;;;6.75;4.15;;;;;;;-145.69;85.29;70244.47;5081778;28;20202;-79
2021/10/21 00:04:42;;;;;;;6.03;3.60;;;;;;;-145.69;89.71;70286.25;5072321;28;20202;-79
2021/10/21 00:07:09;;;;;;;6.65;4.30;;;;;;;-145.69;91.39;70316.06;5072338;28;20681;-80
2021/10/21 00:09:35;;;;;;;8.70;4.35;;;;;;;-145.69;93.00;70339.94;5072432;28;20603;-79
2021/10/21 00:12:04;;;;;;;9.30;4.88;;;;;;;-145.69;94.54;70349.91;5082474;28;20213;-79
2021/10/21 00:14:32;;;;;;;8.15;4.60;;;;;;;-145.69;98.61;70393.66;5096502;28;20293;-79
2021/10/21 00:16:59;;;;;;;7.25;4.72;;;;;;;-145.69;100.00;70413.56;5096515;28;20221;-79
2021/10/21 00:19:26;;;;;;;7.95;4.97;;;;;;;-145.69;100.00;70443.41;5096247;28;20710;-80
2021/10/21 00:21:52;;;;;;;8.70;5.13;;;;;;;-145.69;100.00;70459.31;5096477;28;20201;-80
2021/10/21 00:24:19;;;;;;;9.30;5.05;;;;;;;-145.69;100.00;70475.22;5096308;28;20247;-80
2021/10/21 00:26:45;;;;;;;10.10;5.05;;;;;;;-145.69;100.00;70507.06;5095898;28;20202;-80
2021/10/21 00:29:12;;;;;;;12.38;5.93;;;;;;;-145.69;100.00;70522.97;5096045;28;20198;-81
2021/10/21 00:31:40;;;;;;;10.50;6.32;;;;;;;-145.69;100.00;70524.97;5096216;28;20709;-80
2021/10/21 00:34:06;;;;;;;11.93;6.13;;;;;;;-145.69;100.00;70522.97;5095848;28;20240;-80
2021/10/21 00:36:33;;;;;;;10.20;6.63;;;;;;;-145.69;100.00;70520.97;5096137;28;20226;-80
2021/10/21 00:38:59;;;;;;;11.90;6.60;;;;;;;-145.69;100.00;70530.94;5095999;28;20194;-80
2021/10/21 00:41:26;;;;;;;11.63;6.43;;;;;;;-145.69;100.00;70511.03;5095943;28;20198;-80
2021/10/21 00:44:05;;;;;;;12.98;7.43;;;;;;;-145.69;100.00;70501.09;5095770;28;20212;-79
2021/10/21 00:46:32;;;;;;;15.02;7.28;;;;;;;-145.69;100.00;70511.03;5096062;28;20288;-79
2021/10/21 00:49:00;;;;;;;20.73;7.30;;;;;;;-145.69;100.00;70520.97;5096028;28;20202;-79
2021/10/21 00:51:26;;;;;;;13.75;7.30;;;;;;;-145.69;100.00;70520.97;5095637;28;20568;-79
2021/10/21 00:53:53;;;;;;;14.10;7.63;;;;;;;-145.69;100.00;70519.00;5095782;28;20213;-79
2021/10/21 00:56:19;;;;;;;11.75;7.40;;;;;;;-145.69;100.00;70507.06;5095468;28;20688;-79
2021/10/21 00:58:49;;;;;;;12.52;7.55;;;;;;;-145.69;100.00;70493.13;5095892;28;20202;-78
2021/10/21 01:01:16;;;;;;;13.05;7.25;;;;;;;-145.69;100.00;70487.16;5095902;28;20198;-78
2021/10/21 01:03:43;;;;;;;13.90;7.50;;;;;;;-145.69;100.00;70467.28;5095544;28;20198;-78
2021/10/21 01:06:12;;;;;;;11.45;7.07;;;;;;;-145.69;100.00;70455.34;5095337;28;20206;-78
2021/10/21 01:08:39;;;;;;;11.05;6.97;;;;;;;-145.69;100.00;70451.34;5095351;28;20214;-79
2021/10/21 01:11:07;;;;;;;16.40;7.22;;;;;;;-145.69;100.00;70459.31;5095600;28;20205;-78
2021/10/21 01:13:33;;;;;;;16.67;7.18;;;;;;;-145.69;100.00;70467.28;5095410;28;20236;-78
2021/10/21 01:16:04;;;;;;;10.80;7.38;;;;;;;-145.69;100.00;70459.31;5095416;28;20198;-79
2021/10/21 01:18:31;;;;;;;15.10;7.22;;;;;;;-145.69;100.00;70463.28;5095087;28;20675;-78
2021/10/21 01:20:59;;;;;;;15.27;7.90;;;;;;;-145.69;100.00;70471.25;5095221;28;20202;-79
2021/10/21 01:23:26;;;;;;;12.30;7.43;;;;;;;-145.69;100.00;70475.22;5094885;28;20289;-78
2021/10/21 01:25:53;;;;;;;13.48;7.82;;;;;;;-145.69;100.00;70495.13;5095342;28;20198;-78
2021/10/21 01:28:19;;;;;;;14.93;7.50;;;;;;;-145.69;100.00;70497.09;5095094;28;20190;-78
2021/10/21 01:30:46;;;;;;;14.60;7.70;;;;;;;-145.69;100.00;70495.13;5095126;28;20245;-77
2021/10/21 01:33:13;;;;;;;14.43;8.15;;;;;;;-145.69;100.00;70497.09;5094867;28;20909;-77
2021/10/21 01:35:40;;;;;;;13.75;8.05;;;;;;;-145.69;100.00;70475.22;5091278;28;20233;-76
2021/10/21 01:38:08;;;;;;;14.55;8.05;;;;;;;-145.69;100.00;70453.34;5094716;28;20692;-76
2021/10/21 01:40:35;;;;;;;18.17;8.30;;;;;;;-145.69;100.00;70443.41;5094996;28;20198;-77
2021/10/21 01:43:02;;;;;;;16.10;7.60;;;;;;;-145.69;100.00;70439.41;5094953;28;20561;-76
2021/10/21 01:45:32;;;;;;;18.67;7.50;;;;;;;-145.69;100.00;70429.47;5094684;28;20201;-76
2021/10/21 01:48:02;;;;;;;12.43;6.82;;;;;;;-145.69;100.00;70427.47;5094978;28;20267;-76
2021/10/21 01:50:30;;;;;;;9.23;5.55;;;;;;;-145.69;100.00;70395.66;5094338;28;20683;-76
2021/10/21 01:52:57;;;;;;;10.80;6.38;;;;;;;-145.69;100.00;70397.63;5094726;28;20213;-77
2021/10/21 01:55:26;;;;;;;9.45;5.68;;;;;;;-145.69;100.00;70403.59;5094679;28;20289;-76
2021/10/21 01:57:53;;;;;;;12.25;5.88;;;;;;;-145.69;100.00;70399.63;5094539;28;20607;-77
2021/10/21 02:00:25;;;;;;;10.60;6.32;;;;;;;-145.69;100.00;70403.59;5094462;28;20209;-76
2021/10/21 02:02:52;;;;;;;9.77;6.43;;;;;;;-145.69;100.00;70411.56;5094351;28;20202;-76
2021/10/21 02:05:20;;;;;;;11.35;6.10;;;;;;;-145.69;100.00;70393.66;5094537;28;20213;-76
2021/10/21 02:07:47;;;;;;;9.30;6.43;;;;;;;-145.69;100.00;70397.63;5094418;28;20280;-75
2021/10/21 02:10:15;;;;;;;11.38;6.40;;;;;;;-145.69;100.00;70387.69;5094270;28;20202;-75
2021/10/21 02:12:43;;;;;;;13.68;5.88;;;;;;;-145.69;100.00;70371.78;5094228;28;20194;-75
2021/10/21 02:15:10;;;;;;;8.27;5.72;;;;;;;-145.69;100.00;70371.78;5094124;28;20202;-76
2021/10/21 02:17:37;;;;;;;10.10;6.03;;;;;;;-145.69;100.00;70369.78;5093837;28;20588;-75
2021/10/21 02:20:04;;;;;;;10.50;5.93;;;;;;;-145.69;100.00;70349.91;5094200;28;20205;-75
2021/10/21 02:22:30;;;;;;;8.63;5.70;;;;;;;-145.69;100.00;70355.88;5094178;28;20200;-76
2021/10/21 02:24:57;;;;;;;10.32;5.78;;;;;;;-145.69;100.00;70343.94;5093582;28;20439;-75
2021/10/21 02:27:23;;;;;;;7.72;5.32;;;;;;;-145.69;100.00;70347.91;5094130;28;20198;-75
2021/10/21 02:29:51;;;;;;;10.23;5.30;;;;;;;-145.69;100.00;70353.88;5093919;28;20201;-77
2021/10/21 02:32:18;;;;;;;8.75;5.07;;;;;;;-145.69;100.00;70337.97;5093753;28;20206;-75
2021/10/21 02:34:44;;;;;;;9.88;4.07;;;;;;;-145.69;100.00;70343.94;5093137;28;20268;-76
2021/10/21 02:37:10;;;;;;;6.95;4.63;;;;;;;-145.69;100.00;70312.09;5093472;28;20700;-76
2021/10/21 02:39:37;;;;;;;7.00;4.80;;;;;;;-145.69;100.00;70308.13;5093827;28;20202;-75
2021/10/21 02:42:03;;;;;;;6.13;4.07;;;;;;;-145.69;100.00;70286.25;5093755;28;20205;-75
2021/10/21 02:44:30;;;;;;;6.35;4.38;;;;;;;-145.69;100.00;70294.19;5093439;28;20557;-76
2021/10/21 02:46:58;;;;;;;7.60;4.30;;;;;;;-145.69;100.00;70288.22;5093861;28;20271;-75
2021/10/21 02:49:24;;;;;;;6.53;3.80;;;;;;;-145.69;100.00;70308.13;5093838;28;20193;-75
2021/10/21 02:51:51;;;;;;;7.40;3.70;;;;;;;-145.69;100.00;70298.16;5093549;28;20570;-75
2021/10/21 02:54:17;;;;;;;7.20;3.70;;;;;;;-145.69;100.00;70308.13;5093506;28;20225;-75
2021/10/21 02:56:44;;;;;;;4.15;2.85;;;;;;;-145.69;100.00;70298.16;5093282;28;20251;-76
2021/10/21 02:59:10;;;;;;;5.63;3.38;;;;;;;-145.69;100.00;70288.22;5093216;28;20202;-76
2021/10/21 03:01:37;;;;;;;3.20;2.40;;;;;;;-145.69;100.00;70300.16;5093574;28;20591;-76
2021/10/21 03:04:04;;;;;;;4.05;2.05;;;;;;;-145.69;100.00;70270.31;5093283;28;20203;-75
2021/10/21 03:06:31;;;;;;;3.40;2.00;;;;;;;-145.69;100.00;70272.31;5093195;28;20857;-74
2021/10/21 03:08:57;;;;;;;2.53;1.90;;;;;;;-145.69;100.00;70298.16;5093501;28;20213;-77
2021/10/21 03:11:24;;;;;;;3.85;2.15;;;;;;;-145.69;100.00;70330.00;5093261;28;20202;-75
2021/10/21 03:13:50;;;;;;;2.50;1.97;;;;;;;-145.69;100.00;70339.94;5092116;28;20444;-75
2021/10/21 03:16:16;;;;;;;3.47;1.77;;;;;;;-145.69;100.00;70339.94;5093385;28;20202;-75
2021/10/21 03:18:43;;;;;;;3.50;1.80;;;;;;;-145.69;100.00;70393.66;5093206;28;20282;-75
2021/10/21 03:21:11;;;;;;;4.93;1.70;;;;;;;-145.69;100.00;70411.56;5093315;28;20599;-77
2021/10/21 03:23:37;;;;;;;3.63;1.60;;;;;;;-145.69;100.00;70423.50;5093187;28;20206;-75
2021/10/21 03:26:03;;;;;;;2.40;1.23;;;;;;;-145.69;100.00;70425.50;5093060;28;20198;-75
2021/10/21 03:28:30;;;;;;;2.05;1.00;;;;;;;-145.69;100.00;70441.41;5092679;28;20566;-75
2021/10/21 03:30:56;;;;;;;2.65;1.00;;;;;;;-145.69;100.00;70459.31;5093268;28;20206;-75
2021/10/21 03:33:23;;;;;;;1.80;1.20;;;;;;;-145.69;100.00;70501.09;5092949;28;20201;-76
2021/10/21 03:35:49;;;;;;;3.80;1.30;;;;;;;-145.69;100.00;70481.19;5093066;28;20201;-75
2021/10/21 03:38:17;;;;;;;1.87;1.30;;;;;;;-145.69;100.00;70519.00;5089324;28;20244;-74
2021/10/21 03:40:44;;;;;;;4.37;1.10;;;;;;;-145.69;100.00;70519.00;5092996;28;20198;-76
2021/10/21 03:43:10;;;;;;;2.90;0.80;;;;;;;-145.69;100.00;70540.88;5092927;28;20205;-78
2021/10/21 03:45:36;;;;;;;1.13;0.70;;;;;;;-145.69;100.00;70554.81;5093101;28;20198;-77
2021/10/21 03:48:03;;;;;;;1.40;0.60;;;;;;;-145.69;100.00;70517.00;5096378;28;20202;-77
2021/10/21 03:50:30;;;;;;;0.93;0.63;;;;;;;-145.69;97.58;70526.94;5096997;28;20210;-77
2021/10/21 03:52:56;;;;;;;3.33;0.50;;;;;;;-145.69;96.65;70520.97;5096964;28;20198;-77
2021/10/21 03:55:24;;;;;;;1.40;0.53;;;;;;;-145.69;92.68;70536.91;5097133;28;20227;-78
2021/10/21 03:57:51;;;;;;;1.42;0.40;;;;;;;-145.69;95.96;70572.72;5095993;28;20456;-77
2021/10/21 04:00:17;;;;;;;2.73;0.60;;;;;;;-145.69;94.87;70582.66;5097005;28;20267;-78
2021/10/21 04:02:44;;;;;;;0.73;0.50;;;;;;;-145.69;90.05;70610.50;5096796;28;20205;-77
2021/10/21 04:05:10;;;;;;;2.13;0.50;;;;;;;-145.69;92.20;70644.31;5096777;28;20202;-78
2021/10/21 04:07:37;;;;;;;0.80;0.40;;;;;;;-145.69;91.06;70674.16;5096657;28;20649;-78
2021/10/21 04:10:04;;;;;;;1.23;0.47;;;;;;;-145.69;88.12;70676.16;5096686;28;20224;-77
2021/10/21 04:12:32;;;;;;;1.63;0.60;;;;;;;-145.69;89.33;70666.22;5096912;28;20195;-77
2021/10/21 04:14:59;;;;;;;0.80;0.50;;;;;;;-145.69;91.59;70702.03;5096827;28;20275;-78
2021/10/21 04:17:25;;;;;;;1.57;0.60;;;;;;;-145.69;93.02;70706.00;5096710;28;20279;-77
2021/10/21 04:19:52;;;;;;;2.83;0.53;;;;;;;-145.69;90.21;70692.06;5078442;28;20201;-79
2021/10/21 04:22:18;;;;;;;6.13;0.70;;;;;;;-145.69;92.06;70713.97;5096595;28;20198;-78
2021/10/21 04:24:45;;;;;;;3.87;0.67;;;;;;;-145.69;94.67;70749.78;5096657;28;20259;-79
2021/10/21 04:27:12;;;;;;;1.07;0.60;;;;;;;-145.69;91.29;70741.81;5096467;28;20202;-80
2021/10/21 04:29:40;;;;;;;0.80;0.67;;;;;;;-145.69;92.74;70753.75;5096369;28;20202;-79
2021/10/21 04:32:07;;;;;;;5.67;0.60;;;;;;;-145.69;93.55;70761.72;5096423;28;20259;-79
2021/10/21 04:34:33;;;;;;;2.90;0.80;;;;;;;-145.69;90.30;70753.75;5096044;28;20229;-78
2021/10/21 04:37:00;;;;;;;2.23;0.90;;;;;;;-145.69;91.59;70773.66;5096168;28;20255;-80
2021/10/21 04:39:27;;;;;;;3.23;1.10;;;;;;;-145.69;90.88;70771.66;5095960;28;20230;-77
2021/10/21 04:41:53;;;;;;;1.77;0.70;;;;;;;-145.69;92.89;70787.56;5096316;28;20252;-78
2021/10/21 04:44:20;;;;;;;5.57;0.90;;;;;;;-145.69;90.91;70783.59;5096194;28;20271;-78
2021/10/21 04:46:48;;;;;;;3.43;1.03;;;;;;;-145.69;93.78;70797.53;5096169;28;20686;-80
2021/10/21 04:49:15;;;;;;;4.83;1.13;;;;;;;-145.69;94.06;70811.44;5095862;28;20206;-80
2021/10/21 04:51:41;;;;;;;2.63;1.00;;;;;;;-145.69;91.90;70801.50;5095835;28;20201;-78
2021/10/21 04:54:08;;;;;;;2.73;0.90;;;;;;;-145.69;91.20;70827.38;5095795;28;20725;-77
2021/10/21 04:56:34;;;;;;;2.83;0.83;;;;;;;-145.69;88.65;70843.28;5095848;28;20194;-77
2021/10/21 04:59:01;;;;;;;6.73;0.97;;;;;;;-145.69;89.06;70843.28;5095338;28;20233;-78
2021/10/21 05:01:27;;;;;;;13.47;1.10;;;;;;;-145.69;87.60;70847.25;5095788;28;20256;-79
2021/10/21 05:03:56;;;;;;;4.00;1.13;;;;;;;-145.69;86.24;70835.31;5095671;28;20227;-79
2021/10/21 05:06:22;;;;;;;7.97;1.00;;;;;;;-145.69;87.13;70853.22;5095719;28;20194;-79
2021/10/21 05:08:48;;;;;;;7.47;1.10;;;;;;;-145.69;87.02;70853.22;5095507;28;20683;-77
2021/10/21 05:11:15;;;;;;;8.67;1.40;;;;;;;-145.69;88.19;70865.16;5095832;28;20255;-78
2021/10/21 05:13:41;;;;;;;12.77;1.53;;;;;;;-145.69;87.68;70869.16;5095561;28;20255;-79
2021/10/21 05:16:08;;;;;;;8.73;1.23;;;;;;;-145.69;85.97;70863.19;5095545;28;20206;-78
2021/10/21 05:18:34;;;;;;;4.90;1.03;;;;;;;-145.69;87.30;70881.09;5095295;28;20570;-77
2021/10/21 05:21:02;;;;;;;5.93;1.60;;;;;;;-145.69;88.04;70893.03;5095419;28;20202;-78
2021/10/21 05:23:29;;;;;;;4.23;1.03;;;;;;;-145.69;85.66;70875.13;5095453;28;20202;-79
2021/10/21 05:25:55;;;;;;;6.43;1.03;;;;;;;-145.69;87.33;70910.94;5095424;28;20202;-78
2021/10/21 05:28:21;;;;;;;6.20;1.27;;;;;;;-145.69;87.46;70906.94;5095321;28;20580;-77
2021/10/21 05:30:48;;;;;;;6.00;0.80;;;;;;;-145.69;87.65;70910.94;5095254;28;20198;-78
2021/10/21 05:33:14;;;;;;;2.73;0.90;;;;;;;-145.69;88.26;70916.91;5095076;28;20206;-79
2021/10/21 05:35:41;;;;;;;9.93;1.40;;;;;;;-145.69;84.48;70904.97;5094759;28;20198;-79
2021/10/21 05:38:09;;;;;;;6.53;1.20;;;;;;;-145.69;86.45;70920.88;5093195;28;20279;-79
2021/10/21 05:40:35;;;;;;;4.77;0.83;;;;;;;-145.69;85.56;70924.84;5075585;28;20198;-77
2021/10/21 05:43:02;;;;;;;8.10;1.53;;;;;;;-145.69;85.56;70920.88;5074711;28;20272;-78
2021/10/21 05:45:28;;;;;;;6.53;1.00;;;;;;;-145.69;86.08;70934.81;5074720;28;20297;-79
2021/10/21 05:47:55;;;;;;;6.97;1.03;;;;;;;-145.69;85.41;70944.75;5074527;28;20616;-79
2021/10/21 05:50:21;;;;;;;4.30;1.47;;;;;;;-145.69;83.47;70928.84;5074738;28;20209;-79
2021/10/21 05:52:48;;;;;;;8.30;1.30;;;;;;;-145.69;83.34;70928.84;5074709;28;20199;-79
2021/10/21 05:55:15;;;;;;;11.50;1.20;;;;;;;-145.69;83.26;70932.81;5074460;28;20202;-80
2021/10/21 05:57:42;;;;;;;12.53;1.47;;;;;;;-145.69;83.71;70936.78;5074422;28;20222;-80
2021/10/21 06:00:10;;;;;;;5.57;1.10;;;;;;;-145.69;81.13;70912.91;5074426;28;20558;-79
2021/10/21 06:02:36;;;;;;;6.47;1.23;;;;;;;-145.69;81.80;70942.75;5074292;28;20577;-80
2021/10/21 06:05:04;;;;;;;11.63;1.33;;;;;;;-145.69;82.67;70952.72;5074434;28;20238;-79
2021/10/21 06:07:30;;;;;;;5.43;1.27;;;;;;;-145.69;81.39;70988.53;5074339;28;20248;-79
2021/10/21 06:09:58;;;;;;;9.20;1.27;;;;;;;-145.69;79.99;70964.66;5073977;28;20213;-79
2021/10/21 06:12:26;;;;;;;4.97;1.10;;;;;;;-145.69;77.05;70944.75;5073941;28;20194;-77
2021/10/21 06:14:53;;;;;;;7.50;1.07;;;;;;;-145.69;75.76;70936.78;5074057;28;20230;-77
2021/10/21 06:17:20;;;;;;;13.30;1.07;;;;;;;-145.69;77.42;70960.66;5074118;28;20206;-77
2021/10/21 06:19:46;;;;;;;14.23;2.30;;;;;;;-145.69;76.83;70960.66;5073798;28;20743;-77
2021/10/21 06:22:18;;;;;;;4.53;1.20;;;;;;;-145.69;77.72;70976.59;5073997;28;20569;-79
2021/10/21 06:24:44;;;;;;;7.87;1.40;;;;;;;-145.69;76.54;70964.66;5073979;28;20206;-77
2021/10/21 06:27:11;;;;;;;13.60;1.27;;;;;;;-145.69;78.12;70968.63;5073890;28;20209;-78
2021/10/21 06:29:41;;;;;;;7.57;1.10;;;;;;;-145.69;74.91;70968.63;5073685;28;20203;-77
2021/10/21 06:32:08;;;;;;;8.97;1.70;;;;;;;-145.69;72.95;70968.63;5074130;28;20198;-77
2021/10/21 06:34:35;;;;;;;9.50;1.27;;;;;;;-145.69;74.98;70972.59;5073647;28;20235;-78
2021/10/21 06:37:02;;;;;;;9.53;1.40;;;;;;;-145.69;74.98;70984.53;5073720;28;20194;-76
2021/10/21 06:39:29;;;;;;;11.57;1.50;;;;;;;-145.69;73.65;70962.66;5073399;28;20226;-78
2021/10/21 06:41:55;;;;;;;10.53;1.33;;;;;;;-145.69;75.05;70966.63;5073649;28;20290;-78
2021/10/21 06:44:21;;;;;;;12.87;1.20;;;;;;;-145.69;73.63;70980.56;5073252;28;20213;-78
2021/10/21 06:46:49;;;;;;;4.70;1.00;;;;;;;-145.69;71.87;71004.44;5073640;28;20217;-77
2021/10/21 06:49:16;;;;;;;9.90;1.33;;;;;;;-145.69;73.82;70976.59;5073538;28;20608;-77
2021/10/21 06:51:42;;;;;;;7.77;1.17;;;;;;;-145.69;72.48;70968.63;5073593;28;20202;-79
2021/10/21 06:54:09;;;;;;;7.70;1.27;;;;;;;-145.69;74.59;70964.66;5074382;28;20256;-79
2021/10/21 06:56:36;;;;;;;11.50;1.50;;;;;;;-145.69;72.78;70984.53;5073253;28;20253;-79
2021/10/21 06:59:03;;;;;;;12.03;1.40;;;;;;;-145.69;75.78;70976.59;5073416;28;20222;-79
2021/10/21 07:01:29;;;;;;;11.40;1.50;;;;;;;-145.69;73.72;70990.50;5073636;28;20210;-79
2021/10/21 07:04:00;;;;;;;6.53;1.30;;;;;;;-145.69;72.69;70990.50;5073476;28;20221;-79
2021/10/21 07:06:27;;;;;;;4.47;0.80;;;;;;;-145.69;72.44;71008.41;5073396;28;20209;-78
2021/10/21 07:08:54;;;;;;;7.30;1.30;;;;;;;-145.69;72.05;70992.50;5073203;28;20202;-78
2021/10/21 07:11:21;;;;;;;5.13;1.00;;;;;;;-145.69;73.67;71022.34;5073034;28;20281;-79
2021/10/21 07:13:47;;;;;;;9.40;1.37;;;;;;;-145.69;71.78;70992.50;5073255;28;20222;-77
2021/10/21 07:16:14;;;;;;;4.80;1.17;;;;;;;-145.69;71.83;71022.34;5073093;28;20206;-77
2021/10/21 07:18:41;;;;;;;6.37;1.00;;;;;;;-145.69;74.19;71014.38;5072959;28;20621;-77
2021/10/21 07:21:10;;;;;;;5.03;1.20;;;;;;;-145.69;73.47;71014.38;5072958;28;20202;-79
2021/10/21 07:23:37;;;;;;;5.57;1.10;;;;;;;-145.69;72.56;71022.34;5073073;28;20199;-79
2021/10/21 07:26:03;;;;;;;10.80;1.10;;;;;;;-145.69;73.62;71040.25;5072888;28;20238;-75
2021/10/21 07:28:30;;;;;;;9.17;1.37;;;;;;;-145.69;73.34;71042.25;5073118;28;20248;-77
2021/10/21 07:30:58;;;;;;;10.83;1.33;;;;;;;-145.69;73.03;71052.19;5073135;28;20205;-75
2021/10/21 07:33:24;;;;;;;8.10;1.23;;;;;;;-145.69;72.19;71026.31;5075107;28;20286;-76
2021/10/21 07:35:51;;;;;;;5.63;1.53;;;;;;;-145.69;74.83;71074.09;5073196;28;20564;-77
2021/10/21 07:38:19;;;;;;;6.67;1.03;;;;;;;-145.69;72.90;71072.09;5072478;28;20217;-75
2021/10/21 07:40:45;;;;;;;5.83;1.73;;;;;;;-145.69;76.85;71076.06;5072975;28;20248;-77
2021/10/21 07:43:12;;;;;;;6.83;1.20;;;;;;;-145.69;76.18;71086.03;5072841;28;20206;-76
2021/10/21 07:45:39;;;;;;;8.67;1.07;;;;;;;-145.69;74.56;71103.94;5072963;28;20285;-76
2021/10/21 07:48:07;;;;;;;9.27;0.90;;;;;;;-145.69;74.48;71117.84;5072708;28;20201;-76
2021/10/21 07:50:33;;;;;;;7.10;1.30;;;;;;;-145.69;74.60;71119.84;5072761;28;20199;-77
2021/10/21 07:53:00;;;;;;;7.20;1.37;;;;;;;-145.69;75.87;71127.81;5072724;28;20207;-76
2021/10/21 07:55:30;;;;;;;9.23;1.40;;;;;;;-145.69;76.31;71143.72;5072782;28;20207;-76
2021/10/21 07:57:57;;;;;;;6.40;1.13;;;;;;;-145.69;75.11;71113.88;5072663;28;20202;-76
2021/10/21 08:00:24;;;;;;;5.53;1.10;;;;;;;-145.69;74.19;71127.81;5072425;28;20230;-76
2021/10/21 08:02:50;;;;;;;3.57;1.00;;;;;;;-145.69;72.88;71103.94;5072749;28;20199;-76
2021/10/21 08:05:17;;;;;;;4.37;0.97;;;;;;;-145.69;72.10;71092.00;5072436;28;20328;-76
2021/10/21 08:07:44;;;;;;;9.17;1.30;;;;;;;-145.69;71.06;71099.94;5072498;28;20206;-76
2021/10/21 08:10:11;;;;;;;6.50;0.73;;;;;;;-145.69;71.03;71097.97;5072735;28;20218;-76
2021/10/21 08:12:39;;;;;;;7.23;0.80;;;;;;;-145.69;70.87;71115.88;5072615;28;20209;-77
2021/10/21 08:15:09;;;;;;;4.83;1.37;;;;;;;-145.69;71.39;71111.88;5072585;28;20654;-76
2021/10/21 08:17:37;;;;;;;4.23;1.10;;;;;;;-145.69;72.09;71107.91;5072604;28;20203;-77
2021/10/21 08:20:05;;;;;;;3.67;0.77;;;;;;;-145.69;70.18;71113.88;5072332;28;20226;-77
2021/10/21 08:22:32;;;;;;;3.27;0.90;;;;;;;-145.69;70.72;71127.81;5072599;28;20230;-77
2021/10/21 08:24:59;;;;;;;3.03;0.90;;;;;;;-145.69;70.39;71139.75;5072573;28;20234;-77
2021/10/21 08:27:30;;;;;;;8.87;0.83;;;;;;;-145.69;72.04;71133.78;5072542;28;20609;-77
2021/10/21 08:29:57;;;;;;;4.83;0.90;;;;;;;-145.69;70.75;71135.75;5072491;28;20207;-76
2021/10/21 08:32:24;;;;;;;8.13;1.07;;;;;;;-145.69;71.27;71125.81;5072599;28;20228;-76
2021/10/21 08:34:53;;;;;;;3.30;0.80;;;;;;;-145.69;68.67;71119.84;5075903;28;20234;-76
2021/10/21 08:37:20;;;;;;;4.37;0.60;;;;;;;-145.69;66.50;71121.84;5076078;28;20252;-76
2021/10/21 08:39:47;;;;;;;3.27;0.90;;;;;;;-145.69;65.82;71119.84;5076024;28;20233;-76
2021/10/21 08:42:16;;;;;;;3.60;0.83;;;;;;;-145.69;66.88;71121.84;5075962;28;20195;-76
2021/10/21 08:44:42;;;;;;;6.10;1.00;;;;;;;-145.69;68.89;71127.81;5075947;28;20612;-76
2021/10/21 08:47:11;;;;;;;4.57;0.63;;;;;;;-145.69;67.34;71151.69;5075702;28;20203;-77
2021/10/21 08:49:39;;;;;;;3.83;0.90;;;;;;;-145.69;68.03;71151.69;5075953;28;20607;-77
2021/10/21 08:52:06;;;;;;;6.07;0.70;;;;;;;-145.69;66.53;71141.72;5075935;28;20203;-77
2021/10/21 08:54:33;;;;;;;4.73;0.73;;;;;;;-145.69;67.63;71139.75;5075874;28;20268;-76
2021/10/21 08:57:00;;;;;;;3.50;0.83;;;;;;;-145.69;66.95;71161.63;5075819;28;20195;-75
2021/10/21 08:59:27;;;;;;;3.73;0.87;;;;;;;-145.69;68.84;71151.69;5075430;28;20234;-76
2021/10/21 09:02:04;;;;;;;3.90;0.80;;;;;;;-145.69;69.89;71119.84;5075521;28;20248;-76
2021/10/21 09:04:50;;;;;;;4.63;0.90;;;;;;;-145.69;67.63;71107.91;5075623;28;20243;-78
2021/10/21 09:10:06;;;;;;;3.30;0.90;;;;;;;-145.69;68.25;71159.63;5075317;28;20291;-77
2021/10/21 09:12:40;;;;;;;5.63;0.87;;;;;;;-145.69;67.81;71147.69;5074837;28;20210;-78
2021/10/21 09:15:10;;;;;;;3.63;0.70;;;;;;;-145.69;68.26;71175.56;5074960;28;20210;-77
2021/10/21 09:17:37;;;;;;;4.70;0.83;;;;;;;-145.69;69.66;71187.50;5074685;28;20222;-78
2021/10/21 09:20:26;;;;;;;7.23;0.80;;;;;;;-145.69;68.53;71167.59;5074994;28;20329;-78
2021/10/21 09:22:54;;;;;;;1.87;0.67;;;;;;;-145.69;68.00;71155.66;5075632;28;20202;-80
2021/10/21 09:25:26;;;;;;;3.10;0.90;;;;;;;-145.69;69.18;71147.69;5075408;28;20207;-77
2021/10/21 09:27:55;;;;;;;4.63;0.90;;;;;;;-145.69;69.44;71189.47;5075078;28;20306;-78
2021/10/21 09:30:26;;;;;;;5.90;0.80;;;;;;;-145.69;70.60;71211.38;5075158;28;20256;-75
2021/10/21 09:32:53;;;;;;;2.23;0.70;;;;;;;-145.69;71.72;71219.34;5075103;28;20600;-79
2021/10/21 09:35:22;;;;;;;1.17;0.70;;;;;;;-145.69;68.01;71223.31;5075099;28;20235;-76
2021/10/21 09:37:55;;;;;;;2.07;0.60;;;;;;;-145.69;67.70;71239.22;5077444;28;20217;-78
2021/10/21 09:40:26;;;;;;;2.30;0.80;;;;;;;-145.69;71.08;71211.38;5074993;28;20237;-78
2021/10/21 09:42:57;;;;;;;4.63;0.90;;;;;;;-145.69;69.26;71213.38;5075062;28;20565;-78
2021/10/21 09:45:25;;;;;;;12.80;1.00;;;;;;;-145.69;68.32;71211.38;5074733;28;20558;-78
2021/10/21 09:47:54;;;;;;;5.43;0.70;;;;;;;-145.69;66.69;71201.41;5074933;28;20210;-77
2021/10/21 09:50:23;;;;;;;6.55;0.70;;;;;;;-145.69;68.29;71201.41;5074967;28;20203;-77
2021/10/21 09:53:13;;;;;;;3.77;0.70;;;;;;;-145.69;66.90;71207.38;5074787;28;20199;-77
2021/10/21 09:55:41;;;;;;;8.47;0.90;;;;;;;-145.69;66.90;71195.47;5074722;28;20565;-79
2021/10/21 09:58:11;;;;;;;3.63;0.93;;;;;;;-145.69;66.26;71177.53;5074466;28;20607;-79
2021/10/21 10:00:41;;;;;;;4.17;1.00;;;;;;;-145.69;64.15;71199.44;5074389;28;20227;-78
2021/10/21 10:03:13;;;;;;;2.60;0.73;;;;;;;-145.69;66.78;71201.41;5074649;28;20198;-78
2021/10/21 10:05:41;;;;;;;5.43;0.60;;;;;;;-145.69;65.63;71211.38;5074519;28;20195;-77
2021/10/21 10:08:10;;;;;;;5.20;0.70;;;;;;;-145.69;65.55;71223.31;5074376;28;20199;-76
2021/10/21 10:10:38;;;;;;;2.13;0.70;;;;;;;-145.69;65.48;71235.25;5074312;28;20252;-77
2021/10/21 10:13:04;;;;;;;2.83;0.70;;;;;;;-145.69;65.91;71239.22;5074409;28;20198;-78
2021/10/21 10:15:31;;;;;;;4.37;0.70;;;;;;;-145.69;64.56;71269.06;5074355;28;20276;-76
2021/10/21 10:17:57;;;;;;;5.87;0.70;;;;;;;-145.69;64.47;71269.06;5074101;28;20669;-78
2021/10/21 10:20:26;;;;;;;2.77;0.80;;;;;;;-145.69;65.93;71281.00;5074062;28;20230;-78
2021/10/21 10:22:53;;;;;;;5.97;0.83;;;;;;;-145.69;68.69;71322.81;5073987;28;20275;-77
2021/10/21 10:25:22;;;;;;;1.83;0.50;;;;;;;-145.69;70.70;71330.75;5073912;28;20206;-78
2021/10/21 10:28:00;;;;;;;4.20;0.73;;;;;;;-145.69;79.93;71390.47;5074142;28;20202;-78
2021/10/21 10:30:47;;;;;;;1.70;0.73;;;;;;;-145.69;86.37;71474.03;5074130;28;20224;-77
2021/10/21 10:33:14;;;;;;;1.17;0.40;;;;;;;-145.69;89.45;71515.81;5073840;28;20538;-76
2021/10/21 10:35:42;;;;;;;0.80;0.60;;;;;;;-145.69;90.50;71501.88;5073839;28;20234;-77
2021/10/21 10:38:10;;;;;;;1.60;0.70;;;;;;;-145.69;88.95;71525.78;5073774;28;20639;-77
2021/10/21 10:40:39;;;;;;;2.00;0.60;;;;;;;-145.69;90.52;71501.88;5073934;28;20229;-77
2021/10/21 10:43:06;;;;;;;1.13;0.47;;;;;;;-145.69;93.35;71519.81;5073838;28;20253;-77
2021/10/21 10:45:57;;;;;;;1.27;0.50;;;;;;;-145.69;90.17;71505.88;5073633;28;20249;-77
2021/10/21 10:48:51;;;;;;;1.27;0.40;;;;;;;-145.69;92.87;71480.00;5058527;28;20201;-77
2021/10/21 10:51:17;;;;;;;1.00;0.30;;;;;;;-145.69;90.98;71426.28;5073865;28;20207;-77
2021/10/21 10:53:51;;;;;;;1.60;0.50;;;;;;;-145.69;88.64;71424.28;5073720;28;20268;-78
2021/10/21 10:56:45;;;;;;;2.93;0.60;;;;;;;-145.69;89.08;71426.28;5073008;28;20209;-79
2021/10/21 10:59:15;;;;;;;4.13;0.60;;;;;;;-145.69;88.71;71438.22;5073612;28;20260;-78
2021/10/21 11:01:42;;;;;;;2.80;0.60;;;;;;;-145.69;87.27;71454.13;5073451;28;20233;-77
2021/10/21 11:04:09;;;;;;;7.23;0.77;;;;;;;-145.69;87.82;71442.19;5073353;28;20206;-77
2021/10/21 11:06:36;;;;;;;1.20;0.50;;;;;;;-145.69;89.95;71398.41;5073724;28;20203;-78
2021/10/21 11:09:05;;;;;;;4.93;1.57;;;;;;;-145.69;85.86;71384.47;5073344;28;20218;-77
2021/10/21 11:12:00;;;;;;;2.43;0.60;;;;;;;-145.69;86.78;71374.53;5073506;28;20210;-77
2021/10/21 11:14:37;;;;;;;3.23;0.70;;;;;;;-145.69;84.05;71370.56;5073255;28;20242;-77
2021/10/21 11:17:04;;;;;;;2.50;0.67;;;;;;;-145.69;82.46;71346.69;5073218;28;20202;-77
2021/10/21 11:19:52;;;;;;;2.80;0.70;;;;;;;-145.69;81.78;71332.75;5072647;28;20438;-77